Time;durP1;ratioP1;P1;durP2;ratioP2;P2;SDS_P1;SDS_P2;PMS_P1;PMS_P2;Temp;Humidity;BMP_temperature;BMP_pressure;BME280_temperature;BME280_humidity;BME280_pressure;Samples;Min_cycle;Max_cycle;Signal;HPM_P1;HPM_P2
2021/11/16 00:01:27;;;;;;;42.20;28.73;;;7.30;99.90;;;;;;5043096;28;20212;-81
2021/11/16 00:03:55;;;;;;;44.33;29.80;;;7.30;99.90;;;;;;5043427;28;20260;-81
2021/11/16 00:06:23;;;;;;;44.67;30.23;;;7.30;99.90;;;;;;5046839;28;20239;-80
2021/11/16 00:08:49;;;;;;;41.70;30.03;;;7.40;99.90;;;;;;5052206;28;20273;-80
2021/11/16 00:11:15;;;;;;;42.97;28.13;;;7.50;99.50;;;;;;5054480;28;20177;-81
2021/11/16 00:13:43;;;;;;;41.40;28.77;;;7.40;98.90;;;;;;5058987;28;20168;-81
2021/11/16 00:16:09;;;;;;;41.17;29.00;;;7.50;99.30;;;;;;5057639;28;20189;-83
2021/11/16 00:18:38;;;;;;;42.60;29.37;;;7.50;99.30;;;;;;5054514;28;20176;-81
2021/11/16 00:21:06;;;;;;;46.40;30.53;;;7.40;98.70;;;;;;5055932;28;20170;-81
2021/11/16 00:23:39;;;;;;;43.63;30.30;;;7.40;98.90;;;;;;5050594;28;20192;-81
2021/11/16 00:26:12;;;;;;;42.30;28.93;;;7.30;99.10;;;;;;5051733;28;20212;-82
2021/11/16 00:28:43;;;;;;;40.83;28.80;;;7.40;99.10;;;;;;5042059;28;20299;-80
2021/11/16 00:31:12;;;;;;;42.87;29.83;;;7.40;98.80;;;;;;5036592;28;20165;-81
2021/11/16 00:33:41;;;;;;;42.43;29.00;;;7.40;99.40;;;;;;5036434;28;20178;-81
2021/11/16 00:36:08;;;;;;;42.40;29.37;;;7.40;99.20;;;;;;5036444;28;20697;-80
2021/11/16 00:38:35;;;;;;;43.00;30.00;;;7.50;99.50;;;;;;5037049;28;20198;-81
2021/11/16 00:41:01;;;;;;;43.43;29.03;;;7.50;99.40;;;;;;5036980;28;20177;-80
2021/11/16 00:43:26;;;;;;;44.27;30.27;;;7.50;98.90;;;;;;5037755;28;20177;-80
2021/11/16 00:45:52;;;;;;;43.90;30.03;;;7.50;98.60;;;;;;5036940;28;20249;-81
2021/11/16 00:48:23;;;;;;;45.53;31.57;;;7.50;98.70;;;;;;5037293;28;20177;-81
2021/11/16 00:50:56;;;;;;;43.27;31.07;;;7.40;98.80;;;;;;5035505;28;20177;-82
2021/11/16 00:53:30;;;;;;;41.70;28.73;;;7.50;99.10;;;;;;5036747;28;20599;-81
2021/11/16 00:55:58;;;;;;;43.03;28.53;;;7.60;98.70;;;;;;5036832;28;20663;-81
2021/11/16 00:58:24;;;;;;;39.10;27.90;;;7.60;98.30;;;;;;5036963;28;20252;-80
2021/11/16 01:00:50;;;;;;;40.83;28.33;;;7.40;98.90;;;;;;5035478;28;20260;-82
2021/11/16 01:03:16;;;;;;;40.23;28.73;;;7.40;99.60;;;;;;5037012;28;20219;-82
2021/11/16 01:05:42;;;;;;;39.10;28.20;;;7.50;99.80;;;;;;5035513;28;20224;-81
2021/11/16 01:08:09;;;;;;;42.40;27.90;;;7.50;99.40;;;;;;5038187;28;20265;-82
2021/11/16 01:10:36;;;;;;;44.17;28.93;;;7.40;99.40;;;;;;5054909;28;20208;-79
2021/11/16 01:13:05;;;;;;;40.13;28.30;;;7.40;99.90;;;;;;5053382;28;20184;-80
2021/11/16 01:15:34;;;;;;;37.27;25.17;;;7.40;99.90;;;;;;5055490;28;20174;-81
2021/11/16 01:18:00;;;;;;;40.50;25.53;;;7.40;99.90;;;;;;5051188;28;20183;-80
2021/11/16 01:20:26;;;;;;;39.83;27.30;;;7.30;99.90;;;;;;5043604;28;20181;-80
2021/11/16 01:22:54;;;;;;;40.50;26.60;;;7.30;99.90;;;;;;5038614;28;20216;-81
2021/11/16 01:25:21;;;;;;;38.57;26.77;;;7.40;99.90;;;;;;5040583;28;20209;-81
2021/11/16 01:27:47;;;;;;;43.83;27.60;;;7.30;99.90;;;;;;5045833;28;20165;-81
2021/11/16 01:30:17;;;;;;;36.17;25.43;;;7.40;99.90;;;;;;5036843;28;20610;-80
2021/11/16 01:32:47;;;;;;;36.07;25.07;;;7.20;99.90;;;;;;5035043;28;20177;-82
2021/11/16 01:35:14;;;;;;;39.60;27.43;;;7.10;99.90;;;;;;5035143;28;20173;-80
2021/11/16 01:37:40;;;;;;;39.37;26.43;;;7.20;99.90;;;;;;5034146;28;20559;-80
2021/11/16 01:40:10;;;;;;;42.27;27.77;;;7.20;99.90;;;;;;5036363;28;20174;-81
2021/11/16 01:42:36;;;;;;;38.53;27.60;;;7.30;99.90;;;;;;5034612;28;20216;-81
2021/11/16 01:45:03;;;;;;;42.23;27.13;;;7.30;99.90;;;;;;5035849;28;20198;-80
2021/11/16 01:47:29;;;;;;;37.17;26.17;;;7.30;99.90;;;;;;5034389;28;20269;-81
2021/11/16 01:49:55;;;;;;;44.93;28.40;;;7.30;99.90;;;;;;5035751;28;20193;-80
2021/11/16 01:52:21;;;;;;;39.80;27.20;;;7.40;99.90;;;;;;5035898;28;20176;-81
2021/11/16 01:54:47;;;;;;;41.33;26.43;;;7.40;99.90;;;;;;5034575;28;20695;-80
2021/11/16 01:57:12;;;;;;;35.40;26.10;;;7.40;99.90;;;;;;5034604;28;20174;-81
2021/11/16 01:59:38;;;;;;;41.83;27.73;;;7.40;99.90;;;;;;5034224;28;20219;-81
2021/11/16 02:02:05;;;;;;;39.10;26.83;;;7.40;99.90;;;;;;5035447;28;20170;-81
2021/11/16 02:04:31;;;;;;;38.93;26.30;;;7.40;99.90;;;;;;5034302;28;20637;-82
2021/11/16 02:06:57;;;;;;;38.57;26.03;;;7.40;99.90;;;;;;5034336;28;20209;-80
2021/11/16 02:09:23;;;;;;;40.63;27.50;;;7.40;99.90;;;;;;5035371;28;20189;-81
2021/11/16 02:11:48;;;;;;;41.80;26.73;;;7.40;99.90;;;;;;5035437;28;20192;-82
2021/11/16 02:14:16;;;;;;;42.47;27.70;;;7.20;99.90;;;;;;5037300;28;20196;-80
2021/11/16 02:16:44;;;;;;;41.03;25.83;;;7.20;99.90;;;;;;5051151;28;20252;-80
2021/11/16 02:19:13;;;;;;;42.30;27.37;;;7.20;99.90;;;;;;5049543;28;20524;-80
2021/11/16 02:21:40;;;;;;;39.70;26.43;;;7.30;99.90;;;;;;5047213;28;20184;-81
2021/11/16 02:24:07;;;;;;;36.17;25.27;;;7.40;99.90;;;;;;5035740;28;20194;-81
2021/11/16 02:26:34;;;;;;;38.07;26.63;;;7.30;99.90;;;;;;5035863;28;20288;-81
2021/11/16 02:29:00;;;;;;;39.30;25.70;;;7.30;99.90;;;;;;5033678;28;20192;-82
2021/11/16 02:31:26;;;;;;;37.10;25.57;;;7.30;99.90;;;;;;5035008;28;20169;-81
2021/11/16 02:33:52;;;;;;;43.13;27.87;;;7.30;99.90;;;;;;5037278;28;20176;-81
2021/11/16 02:36:20;;;;;;;40.27;27.63;;;7.30;99.90;;;;;;5036632;28;20593;-81
2021/11/16 02:38:47;;;;;;;38.57;26.23;;;7.30;99.90;;;;;;5036903;28;20215;-81
2021/11/16 02:41:14;;;;;;;39.70;27.60;;;7.40;99.90;;;;;;5034044;28;20170;-81
2021/11/16 02:43:40;;;;;;;37.57;27.57;;;7.40;99.90;;;;;;5033068;28;20205;-81
2021/11/16 02:46:07;;;;;;;40.67;28.80;;;7.50;99.90;;;;;;5034532;28;20209;-81
2021/11/16 02:48:34;;;;;;;38.27;26.13;;;7.50;99.90;;;;;;5034236;28;20176;-81
2021/11/16 02:51:04;;;;;;;40.03;26.47;;;7.50;99.90;;;;;;5034469;28;20185;-81
2021/11/16 02:53:30;;;;;;;42.93;27.37;;;7.40;99.90;;;;;;5034348;28;20158;-81
2021/11/16 02:55:56;;;;;;;41.83;26.90;;;7.30;99.90;;;;;;5034068;28;20173;-81
2021/11/16 02:58:23;;;;;;;42.03;27.03;;;7.20;99.90;;;;;;5032643;28;20335;-81
2021/11/16 03:00:55;;;;;;;43.43;27.43;;;7.30;99.90;;;;;;5032254;28;20184;-80
2021/11/16 03:03:21;;;;;;;38.70;26.67;;;7.10;99.90;;;;;;5034876;28;20166;-81
2021/11/16 03:05:47;;;;;;;40.40;27.13;;;7.20;99.90;;;;;;5032957;28;20220;-81
2021/11/16 03:08:21;;;;;;;39.07;27.10;;;7.20;99.90;;;;;;5034212;28;20219;-80
2021/11/16 03:10:48;;;;;;;43.30;28.23;;;7.20;99.90;;;;;;5032533;28;20645;-80
2021/11/16 03:13:15;;;;;;;43.27;27.30;;;7.10;99.90;;;;;;5033019;28;20188;-80
2021/11/16 03:15:41;;;;;;;41.40;27.33;;;7.10;99.90;;;;;;5032896;28;20177;-80
2021/11/16 03:18:07;;;;;;;42.00;28.30;;;6.90;99.90;;;;;;5032860;28;20224;-80
2021/11/16 03:20:35;;;;;;;41.53;28.07;;;6.90;99.90;;;;;;5033662;28;20180;-81
2021/11/16 03:25:49;;;;;;;42.07;27.20;;;6.90;99.90;;;;;;5042746;28;20267;-80
2021/11/16 03:28:16;;;;;;;45.13;28.67;;;6.90;99.90;;;;;;5046818;28;20223;-81
2021/11/16 03:30:43;;;;;;;45.77;29.90;;;7.00;99.90;;;;;;5055249;28;20161;-80
2021/11/16 03:33:09;;;;;;;42.97;27.80;;;7.10;99.90;;;;;;5048347;28;20264;-81
2021/11/16 03:35:36;;;;;;;45.80;28.90;;;7.10;99.90;;;;;;5043758;28;20193;-80
2021/11/16 03:38:04;;;;;;;43.90;28.00;;;7.00;99.90;;;;;;5035655;28;20236;-80
2021/11/16 03:40:34;;;;;;;44.27;25.97;;;7.00;99.90;;;;;;5031876;28;20162;-80
2021/11/16 03:43:00;;;;;;;47.37;29.47;;;6.90;99.90;;;;;;5033873;28;20182;-80
2021/11/16 03:45:27;;;;;;;46.03;30.20;;;6.90;99.90;;;;;;5033925;28;20199;-80
2021/11/16 03:47:55;;;;;;;47.03;29.27;;;7.00;99.90;;;;;;5035266;28;20169;-80
2021/11/16 03:50:26;;;;;;;44.93;29.70;;;7.00;99.90;;;;;;5035100;28;20170;-80
2021/11/16 03:52:56;;;;;;;50.07;30.30;;;7.00;99.90;;;;;;5035434;28;20173;-80
2021/11/16 03:55:26;;;;;;;48.47;29.60;;;7.10;99.90;;;;;;5036385;28;20240;-80
2021/11/16 03:57:55;;;;;;;49.60;30.67;;;7.10;99.90;;;;;;5047162;28;20225;-80
2021/11/16 04:00:29;;;;;;;42.03;27.77;;;7.10;99.90;;;;;;5047886;28;20193;-81
2021/11/16 04:02:55;;;;;;;46.97;30.43;;;6.90;99.90;;;;;;5045405;28;20215;-79
2021/11/16 04:05:24;;;;;;;49.00;29.93;;;7.00;99.90;;;;;;5048508;28;20209;-80
2021/11/16 04:07:50;;;;;;;47.03;31.50;;;7.10;99.90;;;;;;5045677;28;20189;-80
2021/11/16 04:10:16;;;;;;;46.50;28.93;;;7.10;99.90;;;;;;5037719;28;20641;-80
2021/11/16 04:12:43;;;;;;;46.67;29.83;;;7.00;99.90;;;;;;5033343;28;20181;-80
2021/11/16 04:15:11;;;;;;;49.57;31.00;;;7.00;99.90;;;;;;5032151;28;20256;-81
2021/11/16 04:17:40;;;;;;;47.63;28.13;;;7.10;99.90;;;;;;5032165;28;20173;-80
2021/11/16 04:20:17;;;;;;;44.73;27.80;;;6.90;99.90;;;;;;5031608;28;20181;-80
2021/11/16 04:22:43;;;;;;;49.17;29.93;;;6.90;99.90;;;;;;5033260;28;20197;-82
2021/11/16 04:25:10;;;;;;;50.83;30.77;;;6.90;99.90;;;;;;5031426;28;20203;-82
2021/11/16 04:27:36;;;;;;;48.83;30.80;;;6.90;99.90;;;;;;5033351;28;20174;-81
2021/11/16 04:30:04;;;;;;;51.87;31.83;;;6.90;99.90;;;;;;5032968;28;20705;-81
2021/11/16 04:32:30;;;;;;;47.47;30.10;;;7.00;99.90;;;;;;5032031;28;20178;-82
2021/11/16 04:34:56;;;;;;;45.97;30.50;;;6.90;99.90;;;;;;5033170;28;20174;-81
2021/11/16 04:37:22;;;;;;;54.10;32.50;;;7.00;99.90;;;;;;5032308;28;20180;-81
2021/11/16 04:39:48;;;;;;;50.53;31.20;;;7.00;99.90;;;;;;5032945;28;20196;-81
2021/11/16 04:42:13;;;;;;;51.37;32.47;;;7.00;99.90;;;;;;5031833;28;20646;-81
2021/11/16 04:44:41;;;;;;;46.93;31.67;;;7.00;99.90;;;;;;5032136;28;20220;-81
2021/11/16 04:47:07;;;;;;;50.13;31.13;;;7.00;99.90;;;;;;5031741;28;20237;-81
2021/11/16 04:49:38;;;;;;;53.00;33.03;;;7.00;99.90;;;;;;5031885;28;20208;-81
2021/11/16 05:02:41;;;;;;;52.17;30.53;;;7.00;99.90;;;;;;5038452;28;20204;-81
2021/11/16 05:05:19;;;;;;;50.17;31.27;;;6.90;99.90;;;;;;5039180;28;20205;-81
2021/11/16 05:08:00;;;;;;;50.40;31.43;;;6.90;99.90;;;;;;5044769;28;20157;-80
2021/11/16 05:10:26;;;;;;;50.53;31.47;;;7.00;99.90;;;;;;5046258;28;20185;-80
2021/11/16 05:12:55;;;;;;;52.87;32.97;;;6.90;99.90;;;;;;5052419;28;20185;-78
2021/11/16 05:15:21;;;;;;;50.37;32.67;;;7.00;99.90;;;;;;5053263;28;20158;-80
2021/11/16 05:17:48;;;;;;;48.50;29.47;;;7.00;99.90;;;;;;5053372;28;20684;-80
2021/11/16 05:20:21;;;;;;;50.40;30.47;;;7.10;99.90;;;;;;5039784;28;20180;-81
2021/11/16 05:22:51;;;;;;;52.87;31.33;;;7.00;99.90;;;;;;5037323;28;20232;-80
2021/11/16 05:25:17;;;;;;;50.73;30.37;;;7.00;99.90;;;;;;5035749;28;20225;-80
2021/11/16 05:27:43;;;;;;;52.10;31.93;;;6.90;99.90;;;;;;5036439;28;20169;-81
2021/11/16 05:30:12;;;;;;;52.33;31.40;;;6.90;99.90;;;;;;5037131;28;20204;-81
2021/11/16 05:32:39;;;;;;;50.67;32.80;;;6.90;99.90;;;;;;5037104;28;20261;-80
2021/11/16 05:35:07;;;;;;;49.23;31.23;;;6.90;99.90;;;;;;5042925;28;20232;-80
2021/11/16 05:37:33;;;;;;;56.20;33.53;;;6.90;99.90;;;;;;5048183;28;20161;-80
2021/11/16 05:39:59;;;;;;;52.10;31.60;;;6.90;99.90;;;;;;5049968;28;20550;-80
2021/11/16 05:42:26;;;;;;;51.33;32.60;;;6.90;99.90;;;;;;5042866;28;20178;-81
2021/11/16 05:44:53;;;;;;;52.90;33.50;;;7.00;99.90;;;;;;5036675;28;20245;-81
2021/11/16 05:47:20;;;;;;;56.10;33.53;;;7.00;99.90;;;;;;5036062;28;20660;-80
2021/11/16 05:49:46;;;;;;;51.07;32.17;;;7.10;99.90;;;;;;5034233;28;20188;-81
2021/11/16 05:52:12;;;;;;;58.00;32.83;;;7.10;99.90;;;;;;5034260;28;20672;-81
2021/11/16 05:54:38;;;;;;;55.30;31.93;;;7.00;99.90;;;;;;5034684;28;20233;-82
2021/11/16 05:57:06;;;;;;;52.23;32.90;;;7.00;99.90;;;;;;5034351;28;20176;-82
2021/11/16 05:59:36;;;;;;;57.27;34.63;;;7.00;99.90;;;;;;5034515;28;20177;-81
2021/11/16 06:02:07;;;;;;;55.67;33.70;;;7.00;99.90;;;;;;5035204;28;20173;-81
2021/11/16 06:04:34;;;;;;;55.07;32.57;;;7.10;99.90;;;;;;5034529;28;20201;-82
2021/11/16 06:07:01;;;;;;;52.80;31.63;;;7.10;99.90;;;;;;5036817;28;20209;-81
2021/11/16 06:09:27;;;;;;;50.47;33.20;;;6.80;99.90;;;;;;5035845;28;20186;-81
2021/11/16 06:11:57;;;;;;;50.60;31.53;;;6.80;99.90;;;;;;5035905;28;20181;-81
2021/11/16 06:14:23;;;;;;;58.17;31.27;;;6.80;99.90;;;;;;5035158;28;20166;-80
2021/11/16 06:16:48;;;;;;;54.70;32.97;;;6.80;99.90;;;;;;5033022;28;20591;-81
2021/11/16 06:19:17;;;;;;;53.37;32.27;;;6.80;99.90;;;;;;5019827;28;20182;-81
2021/11/16 06:21:43;;;;;;;53.17;32.20;;;6.80;99.90;;;;;;5015746;28;20476;-81
2021/11/16 06:24:09;;;;;;;54.07;32.40;;;6.80;99.90;;;;;;5016553;28;20198;-81
2021/11/16 06:26:35;;;;;;;54.93;33.30;;;6.90;99.90;;;;;;5016676;28;20582;-81
2021/11/16 06:29:02;;;;;;;51.77;32.03;;;6.80;99.90;;;;;;5015201;28;20181;-81
2021/11/16 06:31:29;;;;;;;53.20;31.90;;;6.90;99.90;;;;;;5018879;28;20190;-82
2021/11/16 06:33:59;;;;;;;57.10;34.70;;;7.00;99.90;;;;;;5017580;28;20174;-82
2021/11/16 06:36:43;;;;;;;57.03;33.43;;;7.00;99.90;;;;;;5021676;28;20174;-82
2021/11/16 06:39:12;;;;;;;56.07;34.07;;;7.00;99.90;;;;;;5024073;28;20224;-81
2021/11/16 06:41:38;;;;;;;53.17;31.47;;;7.10;99.90;;;;;;5032704;28;20186;-81
2021/11/16 06:44:06;;;;;;;55.80;32.83;;;7.00;99.90;;;;;;5043645;28;20173;-80
2021/11/16 06:46:33;;;;;;;56.20;33.40;;;7.10;99.90;;;;;;5039947;28;20209;-81
2021/11/16 06:49:04;;;;;;;56.53;33.50;;;7.10;99.90;;;;;;5035988;28;20268;-82
2021/11/16 06:51:37;;;;;;;54.87;32.80;;;7.10;99.90;;;;;;5037346;28;20273;-83
2021/11/16 06:54:10;;;;;;;48.70;30.53;;;7.10;99.90;;;;;;5039604;28;20524;-82
2021/11/16 06:56:37;;;;;;;51.67;33.03;;;7.00;99.90;;;;;;5037814;28;20161;-83
2021/11/16 06:59:04;;;;;;;55.87;33.43;;;7.00;99.90;;;;;;5037586;28;20165;-82
2021/11/16 07:01:30;;;;;;;54.03;35.37;;;7.10;99.90;;;;;;5035445;28;20190;-81
2021/11/16 07:04:01;;;;;;;53.90;33.50;;;7.20;99.90;;;;;;5037738;28;20231;-83
2021/11/16 07:06:30;;;;;;;53.13;32.23;;;7.10;99.90;;;;;;5040484;28;20206;-81
2021/11/16 07:08:57;;;;;;;55.93;33.63;;;7.00;99.90;;;;;;5039794;28;20181;-81
2021/11/16 07:11:24;;;;;;;52.10;33.80;;;7.00;99.90;;;;;;5042326;28;20181;-85
2021/11/16 07:14:09;;;;;;;55.10;33.80;;;7.10;99.90;;;;;;5035200;28;20538;-82
2021/11/16 07:16:40;;;;;;;53.93;32.47;;;7.30;99.90;;;;;;5035443;28;20256;-83
2021/11/16 07:19:09;;;;;;;48.63;30.33;;;7.40;99.90;;;;;;5037353;28;20251;-83
2021/11/16 07:21:49;;;;;;;50.47;32.00;;;7.30;99.90;;;;;;5036110;28;20259;-82
2021/11/16 07:24:22;;;;;;;49.80;31.37;;;7.20;99.90;;;;;;5035664;28;20201;-81
2021/11/16 07:26:55;;;;;;;56.33;32.53;;;7.10;99.90;;;;;;5036847;28;20205;-82
2021/11/16 07:29:30;;;;;;;51.50;31.03;;;7.10;99.90;;;;;;5035136;28;20169;-81
2021/11/16 07:31:56;;;;;;;56.43;33.83;;;7.00;99.90;;;;;;5039109;28;20177;-82
2021/11/16 07:34:23;;;;;;;58.50;34.30;;;7.10;99.90;;;;;;5048882;28;20174;-80
2021/11/16 07:36:55;;;;;;;53.93;32.37;;;7.10;99.90;;;;;;5047753;28;20197;-82
2021/11/16 07:39:22;;;;;;;56.70;34.03;;;7.10;99.90;;;;;;5050622;28;20176;-81
2021/11/16 07:41:49;;;;;;;53.63;32.33;;;7.10;99.90;;;;;;5036025;28;20190;-82
2021/11/16 07:44:16;;;;;;;55.27;32.87;;;7.10;99.90;;;;;;5048059;28;20625;-83
2021/11/16 07:46:55;;;;;;;56.13;33.73;;;7.10;99.90;;;;;;5046784;28;20339;-82
2021/11/16 07:49:25;;;;;;;54.23;31.93;;;7.10;99.90;;;;;;5039471;28;20614;-83
2021/11/16 07:51:52;;;;;;;57.23;33.97;;;7.20;99.90;;;;;;5037165;28;20173;-82
2021/11/16 07:54:28;;;;;;;61.10;36.87;;;7.20;99.90;;;;;;5035853;28;20523;-82
2021/11/16 07:57:02;;;;;;;59.03;34.53;;;7.20;99.90;;;;;;5036908;28;20158;-81
2021/11/16 07:59:30;;;;;;;54.33;32.77;;;7.30;99.90;;;;;;5037175;28;20181;-81
2021/11/16 08:04:32;;;;;;;58.63;34.13;;;7.40;99.90;;;;;;5034792;28;20586;-83
2021/11/16 08:09:54;;;;;;;60.20;35.27;;;7.30;99.90;;;;;;5047626;28;20179;-81
2021/11/16 08:12:38;;;;;;;53.60;33.07;;;7.40;99.90;;;;;;5047852;28;20225;-82
2021/11/16 08:15:11;;;;;;;55.27;33.23;;;7.40;99.90;;;;;;5036457;28;20633;-81
2021/11/16 08:17:40;;;;;;;59.43;32.90;;;7.30;99.90;;;;;;5033782;28;20166;-81
2021/11/16 08:20:14;;;;;;;58.27;33.73;;;7.20;99.90;;;;;;5034050;28;20629;-80
2021/11/16 08:22:42;;;;;;;63.57;33.67;;;7.20;99.90;;;;;;5032569;28;20756;-82
2021/11/16 08:25:10;;;;;;;55.77;32.50;;;7.20;99.90;;;;;;5032662;28;20595;-83
2021/11/16 08:27:39;;;;;;;57.13;33.87;;;7.10;99.90;;;;;;5035014;28;20197;-83
2021/11/16 08:30:22;;;;;;;51.30;31.10;;;7.10;99.90;;;;;;5019440;28;20170;-82
2021/11/16 08:32:51;;;;;;;51.47;31.00;;;7.20;99.90;;;;;;5035710;28;20269;-81
2021/11/16 08:35:24;;;;;;;57.10;31.83;;;7.20;99.90;;;;;;5036026;28;20180;-81
2021/11/16 08:37:55;;;;;;;50.83;31.67;;;7.10;99.90;;;;;;5036418;28;20208;-84
2021/11/16 08:40:24;;;;;;;56.17;32.03;;;7.00;99.90;;;;;;5036208;28;20176;-82
2021/11/16 08:42:54;;;;;;;56.40;32.60;;;7.00;99.90;;;;;;5036567;28;20708;-83
2021/11/16 08:45:25;;;;;;;54.17;32.47;;;7.00;99.90;;;;;;5036110;28;20200;-84
2021/11/16 08:48:13;;;;;;;53.17;32.03;;;7.10;99.90;;;;;;5036253;28;20656;-82
2021/11/16 08:50:52;;;;;;;62.00;33.80;;;7.10;99.90;;;;;;5036347;28;20191;-82
2021/11/16 08:53:25;;;;;;;58.70;33.20;;;7.00;99.90;;;;;;5036420;28;20181;-82
2021/11/16 08:55:54;;;;;;;52.03;30.07;;;7.00;99.90;;;;;;5037411;28;20201;-82
2021/11/16 08:58:23;;;;;;;59.47;33.20;;;7.00;99.90;;;;;;5036433;28;20169;-83
2021/11/16 09:00:57;;;;;;;58.37;31.53;;;7.00;99.90;;;;;;5035823;28;20174;-83
2021/11/16 09:03:28;;;;;;;58.20;33.23;;;6.90;99.90;;;;;;5053249;28;20179;-83
2021/11/16 09:05:56;;;;;;;60.83;33.57;;;6.90;99.90;;;;;;5035906;28;20319;-83
2021/11/16 09:08:49;;;;;;;56.10;31.87;;;6.90;99.90;;;;;;5041905;28;20204;-82
2021/11/16 09:11:18;;;;;;;56.63;32.37;;;7.00;99.90;;;;;;5051015;28;20224;-83
2021/11/16 09:13:47;;;;;;;53.70;31.20;;;7.00;99.90;;;;;;5041547;28;20182;-83
2021/11/16 09:16:14;;;;;;;59.40;34.40;;;7.00;99.90;;;;;;5037290;28;20202;-83
2021/11/16 09:18:50;;;;;;;57.83;32.70;;;7.10;99.90;;;;;;5056111;28;20223;-83
2021/11/16 09:21:19;;;;;;;57.30;32.47;;;7.30;99.90;;;;;;5041958;28;20223;-83
2021/11/16 09:24:10;;;;;;;58.67;35.40;;;7.30;99.90;;;;;;5038577;28;20197;-81
2021/11/16 09:29:18;;;;;;;53.27;28.43;;;7.20;99.90;;;;;;5045190;28;20204;-82
2021/11/16 09:31:52;;;;;;;53.57;31.83;;;7.20;99.90;;;;;;5037802;28;20541;-83
2021/11/16 09:34:18;;;;;;;55.00;32.87;;;7.10;99.90;;;;;;5048732;28;20940;-82
2021/11/16 09:36:53;;;;;;;55.23;32.27;;;7.10;99.90;;;;;;5055233;28;20649;-84
2021/11/16 09:39:25;;;;;;;56.60;32.40;;;7.20;99.90;;;;;;5043688;28;20712;-83
2021/11/16 09:42:01;;;;;;;59.27;32.77;;;7.30;99.90;;;;;;5040592;28;20237;-82
2021/11/16 09:44:30;;;;;;;52.07;30.73;;;7.20;99.90;;;;;;5049903;28;20165;-83
2021/11/16 09:46:58;;;;;;;57.00;32.87;;;7.20;99.90;;;;;;5049199;28;20206;-82
2021/11/16 09:49:31;;;;;;;53.87;31.10;;;7.20;99.90;;;;;;5049192;28;20174;-83
2021/11/16 09:52:04;;;;;;;50.27;30.77;;;7.20;99.90;;;;;;5058957;28;20169;-82
2021/11/16 09:54:31;;;;;;;53.87;31.63;;;7.10;99.90;;;;;;5041847;28;20177;-81
2021/11/16 09:57:14;;;;;;;51.10;31.23;;;7.20;99.90;;;;;;5044728;28;20212;-83
2021/11/16 09:59:42;;;;;;;49.87;29.90;;;7.20;99.90;;;;;;5039160;28;20202;-83
2021/11/16 10:02:16;;;;;;;51.20;30.10;;;7.10;99.90;;;;;;5035631;28;20177;-83
2021/11/16 10:04:49;;;;;;;54.10;32.13;;;7.10;99.90;;;;;;5036919;28;20178;-83
2021/11/16 10:07:16;;;;;;;47.23;28.10;;;7.20;99.90;;;;;;5035515;28;20237;-81
2021/11/16 10:09:43;;;;;;;50.60;29.27;;;7.20;99.90;;;;;;5036816;28;20200;-83
2021/11/16 10:12:10;;;;;;;51.87;29.80;;;7.30;99.90;;;;;;5035239;28;20185;-83
2021/11/16 10:14:35;;;;;;;52.43;30.00;;;7.10;99.90;;;;;;5034971;28;20178;-82
2021/11/16 10:17:01;;;;;;;43.03;27.70;;;7.20;99.90;;;;;;5035259;28;20187;-82
2021/11/16 10:19:27;;;;;;;36.70;22.90;;;7.20;99.90;;;;;;5037568;28;20178;-83
2021/11/16 10:21:53;;;;;;;48.93;28.57;;;7.20;99.90;;;;;;5047761;28;20685;-82
2021/11/16 10:24:26;;;;;;;47.83;27.57;;;7.10;99.90;;;;;;5051072;28;20197;-82
2021/11/16 10:26:57;;;;;;;47.50;30.47;;;7.10;99.90;;;;;;5055722;28;20209;-80
2021/11/16 10:29:23;;;;;;;51.20;30.47;;;7.10;99.90;;;;;;5038088;28;20174;-83
2021/11/16 10:31:49;;;;;;;49.07;30.13;;;7.20;99.90;;;;;;5037477;28;20185;-83
2021/11/16 10:34:18;;;;;;;49.03;30.23;;;7.20;99.90;;;;;;5034671;28;20253;-83
2021/11/16 10:36:44;;;;;;;45.57;28.70;;;7.30;99.90;;;;;;5034589;28;20254;-83
2021/11/16 10:39:10;;;;;;;49.97;29.17;;;7.40;99.90;;;;;;5034312;28;20193;-82
2021/11/16 10:41:38;;;;;;;49.87;30.40;;;7.40;99.90;;;;;;5044083;28;20186;-82
2021/11/16 10:44:15;;;;;;;47.50;30.67;;;7.50;99.90;;;;;;5052756;28;20193;-83
2021/11/16 10:46:43;;;;;;;50.43;29.93;;;7.50;99.90;;;;;;5052834;28;20212;-82
2021/11/16 10:49:15;;;;;;;51.67;29.77;;;7.50;99.90;;;;;;5048149;28;20170;-81
2021/11/16 10:51:53;;;;;;;45.27;28.60;;;7.50;99.90;;;;;;5041695;28;20178;-81
2021/11/16 10:54:54;;;;;;;47.77;28.67;;;7.50;99.90;;;;;;5036348;28;20626;-82
2021/11/16 10:57:21;;;;;;;44.97;26.70;;;7.50;99.90;;;;;;5034726;28;20173;-82
2021/11/16 10:59:59;;;;;;;50.70;30.57;;;7.60;99.90;;;;;;5034832;28;20204;-84
2021/11/16 11:02:25;;;;;;;51.37;31.10;;;7.70;99.90;;;;;;5035440;28;20215;-82
2021/11/16 11:04:50;;;;;;;53.00;31.57;;;7.80;99.60;;;;;;5039746;28;20177;-81
2021/11/16 11:07:16;;;;;;;47.97;30.17;;;7.90;98.60;;;;;;5047625;28;20209;-82
2021/11/16 11:09:42;;;;;;;46.93;28.47;;;8.00;98.50;;;;;;5048617;28;20173;-81
2021/11/16 11:12:27;;;;;;;50.27;29.50;;;7.90;98.30;;;;;;5047839;28;20189;-81
2021/11/16 11:14:56;;;;;;;49.77;29.47;;;7.80;98.90;;;;;;5042526;28;20174;-80
2021/11/16 11:17:38;;;;;;;48.57;29.77;;;7.80;98.70;;;;;;5040551;28;20157;-82
2021/11/16 11:20:11;;;;;;;48.57;29.93;;;7.80;98.70;;;;;;5050212;28;20162;-82
2021/11/16 11:22:43;;;;;;;50.33;30.70;;;7.80;98.60;;;;;;5053532;28;20186;-82
2021/11/16 11:25:34;;;;;;;50.43;30.83;;;8.00;98.20;;;;;;5050235;28;20207;-84
2021/11/16 11:28:04;;;;;;;48.47;28.70;;;8.30;97.20;;;;;;5035252;28;20319;-82
2021/11/16 11:30:33;;;;;;;49.63;30.30;;;8.30;96.30;;;;;;5035052;28;20177;-83
2021/11/16 11:32:58;;;;;;;48.10;29.63;;;8.10;96.30;;;;;;5039641;28;20169;-82
2021/11/16 11:35:27;;;;;;;48.23;29.87;;;8.30;96.30;;;;;;5036931;28;20265;-84
2021/11/16 11:37:57;;;;;;;46.67;27.87;;;8.30;96.10;;;;;;5045827;28;20170;-82
2021/11/16 11:40:32;;;;;;;56.97;30.43;;;8.30;95.20;;;;;;5043479;28;20169;-83
2021/11/16 11:43:21;;;;;;;51.90;31.53;;;8.30;95.10;;;;;;5040257;28;20180;-82
2021/11/16 11:45:48;;;;;;;53.50;30.53;;;8.30;95.30;;;;;;5036837;28;20209;-81
2021/11/16 11:48:21;;;;;;;47.77;27.80;;;8.20;95.40;;;;;;5042993;28;20217;-82
2021/11/16 11:50:58;;;;;;;48.47;28.97;;;8.10;95.90;;;;;;5034400;28;20177;-82
2021/11/16 11:53:29;;;;;;;50.93;30.27;;;7.90;96.50;;;;;;5055871;28;20196;-83
2021/11/16 11:56:09;;;;;;;54.67;31.23;;;7.60;98.10;;;;;;5053509;28;20281;-83
2021/11/16 11:58:38;;;;;;;52.73;30.07;;;7.60;99.30;;;;;;5027863;28;20169;-83
2021/11/16 12:01:08;;;;;;;52.00;29.70;;;7.90;99.10;;;;;;5032876;28;20177;-82
2021/11/16 12:03:40;;;;;;;47.60;29.33;;;7.90;98.40;;;;;;5034679;28;20158;-84
2021/11/16 12:06:07;;;;;;;56.03;32.93;;;8.10;97.60;;;;;;5056353;28;20245;-84
2021/11/16 12:08:33;;;;;;;50.33;30.53;;;8.10;97.10;;;;;;5034903;28;20184;-82
2021/11/16 12:10:59;;;;;;;62.33;35.87;;;8.10;96.90;;;;;;5033674;28;20272;-82
2021/11/16 12:13:27;;;;;;;51.43;31.27;;;8.20;97.10;;;;;;5041421;28;20196;-82
2021/11/16 12:16:09;;;;;;;54.43;30.53;;;8.10;97.00;;;;;;5034574;28;20634;-81
2021/11/16 12:18:45;;;;;;;55.90;32.20;;;8.10;97.10;;;;;;5063146;28;20519;-81
2021/11/16 12:21:29;;;;;;;52.40;29.60;;;8.10;97.20;;;;;;5031631;28;20177;-83
2021/11/16 12:23:58;;;;;;;46.03;27.63;;;7.90;97.80;;;;;;5064218;28;20192;-83
2021/11/16 12:26:26;;;;;;;50.23;28.33;;;7.90;97.50;;;;;;5033740;28;20215;-81
2021/11/16 12:28:52;;;;;;;49.60;28.33;;;7.90;97.80;;;;;;5034675;28;20174;-81
2021/11/16 12:31:25;;;;;;;47.23;28.30;;;7.90;98.20;;;;;;5051006;28;20251;-82
2021/11/16 12:33:54;;;;;;;42.87;26.77;;;7.60;99.00;;;;;;5055196;28;20231;-89
2021/11/16 12:36:28;;;;;;;50.10;28.43;;;7.60;99.80;;;;;;5054921;28;20177;-82
2021/11/16 12:38:55;;;;;;;47.20;27.97;;;7.80;99.20;;;;;;5053079;28;20247;-82
2021/11/16 12:41:32;;;;;;;49.77;27.83;;;7.80;98.20;;;;;;5053406;28;20173;-80
2021/11/16 12:44:01;;;;;;;52.30;29.33;;;7.80;98.40;;;;;;5053178;28;20164;-81
2021/11/16 12:46:29;;;;;;;53.17;30.43;;;7.80;98.70;;;;;;5051527;28;20295;-82
2021/11/16 12:48:56;;;;;;;51.90;29.90;;;7.80;99.30;;;;;;5052705;28;20594;-83
2021/11/16 12:51:24;;;;;;;55.30;28.00;;;7.90;99.80;;;;;;5069407;28;20583;-83
2021/11/16 12:53:56;;;;;;;49.10;27.87;;;8.10;99.60;;;;;;5051990;28;20208;-85
2021/11/16 12:56:48;;;;;;;51.27;27.03;;;8.00;99.40;;;;;;5052191;28;20203;-83
2021/11/16 12:59:16;;;;;;;45.10;24.67;;;8.00;99.20;;;;;;5051127;28;20173;-83
2021/11/16 13:01:44;;;;;;;49.40;26.23;;;8.00;98.90;;;;;;5053976;28;20169;-82
2021/11/16 13:04:13;;;;;;;50.33;25.10;;;8.00;98.80;;;;;;5053797;28;20177;-82
2021/11/16 13:06:42;;;;;;;37.63;21.47;;;7.90;99.60;;;;;;5050247;28;20209;-81
2021/11/16 13:09:11;;;;;;;45.77;26.47;;;7.90;99.20;;;;;;5046734;28;20165;-81